Terminal Aerodrome Forecast
Issued by NWS Chicago, IL

Home | Current Version | Previous Version | Graphics & Text | Print | Product List | Glossary On
Versions: 1 2 3 4 5 6 7 8 9 10 11 12 13 14 15 16 17 18 19 20 21 22 23 24 25 26 27 28 29 30 31 32 33 34 35 36
000
FTUS43 KLOT 301130
TAFRFD
TAF
KRFD 301130Z 3012/3112 25007KT 6SM -SHRA SCT015 OVC035
     FM301400 03008KT 5SM -RA BR SCT007 OVC015
     FM301600 04014G21KT 3SM SHRA BR OVC007
     FM302200 04016G27KT 6SM -SHRA SCT007 OVC015
     FM310100 04016G27KT P6SM SCT015 BKN040=

USA.gov is the U.S. government's official web portal to all federal, state and local government web resources and services.